Terminal Aerodrome Forecast
Issued by NWS Wichita, KS

Home | Current Version | Previous Version | Text Only | Print | Product List | Glossary Off
Versions: 1 2 3 4 5 6 7 8 9 10 11 12 13 14 15

000
FTUS43 KICT 192300
TAFICT
TAF
KICT 192340Z 2000/2024 15007KT P6SM OVC060
     FM201100 00000KT P6SM SCT050
     FM201700 06009KT P6SM SKC=

USA.gov is the U.S. government's official web portal to all federal, state and local government web resources and services.